Time;durP1;ratioP1;P1;durP2;ratioP2;P2;SDS_P1;SDS_P2;PMS_P1;PMS_P2;Temp;Humidity;BMP_temperature;BMP_pressure;BME280_temperature;BME280_humidity;BME280_pressure;Samples;Min_cycle;Max_cycle;Signal;HPM_P1;HPM_P2
2022/03/03 00:02:50;;;;;;;119.95;47.20;;;;;;;-0.32;100.00;102275.13;10274404;29;20035;-84
2022/03/03 00:07:51;;;;;;;109.18;48.65;;;;;;;-0.38;100.00;102256.75;10228674;29;20110;-83
2022/03/03 00:12:51;;;;;;;123.03;50.08;;;;;;;-0.35;100.00;102272.72;10185107;29;20047;-83
2022/03/03 00:17:52;;;;;;;122.15;47.80;;;;;;;-0.37;100.00;102274.72;10216899;29;20035;-84
2022/03/03 00:22:53;;;;;;;121.22;50.45;;;;;;;-0.39;100.00;102265.91;10200742;29;20031;-83
2022/03/03 00:27:53;;;;;;;115.32;46.90;;;;;;;-0.64;100.00;102224.09;10200919;29;20039;-83
2022/03/03 00:32:54;;;;;;;110.80;47.25;;;;;;;-0.49;100.00;102243.44;10270741;29;20089;-83
2022/03/03 00:37:54;;;;;;;125.45;50.95;;;;;;;-0.41;100.00;102243.53;10223509;29;20047;-84
2022/03/03 00:42:55;;;;;;;110.97;48.05;;;;;;;-0.46;100.00;102229.59;10255512;29;20035;-84
2022/03/03 00:47:55;;;;;;;119.22;49.58;;;;;;;-0.58;100.00;102217.25;10255199;29;20127;-84
2022/03/03 00:52:56;;;;;;;117.60;45.45;;;;;;;-1.51;100.00;102066.59;10239008;29;20027;-84
2022/03/03 00:57:56;;;;;;;117.43;46.65;;;;;;;-0.66;100.00;102210.75;10254137;29;20074;-84
2022/03/03 01:02:57;;;;;;;120.43;52.13;;;;;;;-0.63;100.00;102201.47;10255563;29;20086;-84
2022/03/03 01:07:57;;;;;;;114.07;50.08;;;;;;;-0.64;100.00;102197.94;10238113;28;20041;-83
2022/03/03 01:12:58;;;;;;;114.20;47.17;;;;;;;-0.73;100.00;102181.72;10238223;29;20887;-84
2022/03/03 01:17:58;;;;;;;109.32;47.35;;;;;;;-0.76;100.00;102182.88;10253990;29;20078;-83
2022/03/03 01:22:59;;;;;;;120.53;48.38;;;;;;;-0.71;100.00;102204.91;10238448;29;20066;-82
2022/03/03 01:27:59;;;;;;;121.18;46.95;;;;;;;-0.85;100.00;102183.75;10270654;29;20039;-81
2022/03/03 01:33:00;;;;;;;104.25;43.55;;;;;;;-0.83;100.00;102203.38;10237817;29;20063;-83
2022/03/03 01:38:00;;;;;;;112.55;45.08;;;;;;;-0.90;100.00;102191.47;10253202;29;20055;-83
2022/03/03 01:43:01;;;;;;;114.20;46.38;;;;;;;-0.90;100.00;102203.13;10253442;29;20050;-83
2022/03/03 01:48:01;;;;;;;125.05;49.20;;;;;;;-0.92;100.00;102186.19;10270921;29;20095;-83
2022/03/03 01:53:02;;;;;;;115.60;48.30;;;;;;;-0.97;100.00;102171.41;10253371;29;20035;-83
2022/03/03 01:58:03;;;;;;;109.13;44.22;;;;;;;-1.11;100.00;102178.16;10236564;29;20107;-83
2022/03/03 02:03:04;;;;;;;115.40;47.80;;;;;;;-1.19;100.00;102181.56;10253453;29;20070;-82
2022/03/03 02:08:04;;;;;;;114.70;46.92;;;;;;;-1.31;100.00;102161.09;10236963;29;20055;-83
2022/03/03 02:13:06;;;;;;;123.75;50.25;;;;;;;-1.31;100.00;102156.53;10253152;29;20095;-82
2022/03/03 02:18:06;;;;;;;122.78;47.15;;;;;;;-1.34;100.00;102145.19;10220509;29;20131;-83
2022/03/03 02:23:06;;;;;;;115.95;46.17;;;;;;;-1.33;100.00;102146.88;10258017;29;20059;-82
2022/03/03 02:28:07;;;;;;;112.70;46.90;;;;;;;-1.39;100.00;102152.88;10277437;29;20039;-82
2022/03/03 02:33:07;;;;;;;116.13;46.92;;;;;;;-1.42;100.00;102156.72;10260449;29;20031;-83
2022/03/03 02:38:08;;;;;;;115.28;47.50;;;;;;;-1.46;100.00;102158.84;10276034;29;20062;-82
2022/03/03 02:43:08;;;;;;;122.40;49.97;;;;;;;-1.82;100.00;102092.91;10259605;29;20047;-83
2022/03/03 02:48:09;;;;;;;118.07;50.60;;;;;;;-1.46;100.00;102152.59;10258629;29;20044;-82
2022/03/03 02:53:09;;;;;;;126.60;50.17;;;;;;;-1.43;100.00;102157.69;10243203;29;20039;-83
2022/03/03 02:58:11;;;;;;;129.10;52.77;;;;;;;-1.44;100.00;102156.84;10276538;29;20035;-84
2022/03/03 03:03:12;;;;;;;132.33;51.30;;;;;;;-1.38;100.00;102165.41;10220580;29;20032;-84
2022/03/03 03:08:12;;;;;;;138.32;53.72;;;;;;;-1.38;100.00;102154.59;10219303;29;20055;-84
2022/03/03 03:13:14;;;;;;;132.15;51.40;;;;;;;-1.23;100.00;102164.78;10211303;29;20171;-84
2022/03/03 03:18:19;;;;;;;121.57;50.22;;;;;;;-1.26;100.00;102156.09;10249795;29;20043;-84
2022/03/03 03:23:22;;;;;;;112.10;50.92;;;;;;;-2.13;100.00;102028.31;10218710;29;20040;-83
2022/03/03 03:28:24;;;;;;;116.88;48.13;;;;;;;-1.26;100.00;102158.81;10203570;29;20024;-83
2022/03/03 03:33:24;;;;;;;108.35;45.85;;;;;;;-1.28;100.00;102167.06;10218333;29;20066;-82
2022/03/03 03:38:25;;;;;;;100.72;47.08;;;;;;;-1.56;100.00;102125.59;10218048;29;20448;-83
2022/03/03 03:43:25;;;;;;;100.55;44.90;;;;;;;-1.35;100.00;102162.38;10217867;29;20052;-83
2022/03/03 03:48:25;;;;;;;98.15;41.53;;;;;;;-1.46;100.00;102148.03;10242910;29;20056;-84
2022/03/03 03:53:26;;;;;;;99.25;45.92;;;;;;;-1.46;100.00;102153.44;10256623;29;20039;-83
2022/03/03 03:58:26;;;;;;;104.57;42.88;;;;;;;-1.52;100.00;102143.22;10256506;29;20040;-84
2022/03/03 04:03:27;;;;;;;101.90;43.25;;;;;;;-1.54;100.00;102134.41;10274291;29;20039;-83
2022/03/03 04:08:27;;;;;;;98.35;43.95;;;;;;;-1.69;100.00;102120.50;10256199;29;20058;-83
2022/03/03 04:13:28;;;;;;;93.75;39.47;;;;;;;-1.63;100.00;102146.91;10256064;29;20466;-83
2022/03/03 04:18:29;;;;;;;90.90;41.03;;;;;;;-1.66;100.00;102135.53;10223751;29;20059;-83
2022/03/03 04:23:29;;;;;;;106.97;43.08;;;;;;;-1.70;100.00;102140.38;10232966;29;20036;-83
2022/03/03 04:28:30;;;;;;;85.30;41.33;;;;;;;-1.73;100.00;102137.13;10233164;29;20063;-82
2022/03/03 04:33:31;;;;;;;85.65;40.13;;;;;;;-1.83;100.00;102143.34;10255825;29;20027;-82
2022/03/03 04:38:31;;;;;;;102.50;42.70;;;;;;;-1.77;100.00;102130.31;10239449;29;20044;-82
2022/03/03 04:43:31;;;;;;;103.40;44.45;;;;;;;-1.75;100.00;102122.91;10254909;28;20043;-83
2022/03/03 04:48:32;;;;;;;97.97;43.40;;;;;;;-1.74;100.00;102121.91;10271316;29;20031;-83
2022/03/03 04:53:32;;;;;;;105.20;43.15;;;;;;;-1.77;100.00;102120.34;10271694;29;20028;-82
2022/03/03 04:58:33;;;;;;;101.63;43.80;;;;;;;-1.79;100.00;102118.78;10271959;29;20039;-82
2022/03/03 05:03:34;;;;;;;106.18;45.03;;;;;;;-1.83;100.00;102110.97;10254236;29;20051;-82
2022/03/03 05:08:35;;;;;;;106.00;44.05;;;;;;;-1.84;100.00;102106.56;10271292;29;20043;-81
2022/03/03 05:13:37;;;;;;;109.60;45.83;;;;;;;-1.87;100.00;102090.66;10270195;29;20046;-81
2022/03/03 05:18:38;;;;;;;97.28;44.63;;;;;;;-1.92;100.00;102090.25;10252594;29;20063;-81
2022/03/03 05:23:38;;;;;;;100.38;44.75;;;;;;;-1.97;100.00;102100.59;10270630;29;20039;-81
2022/03/03 05:28:39;;;;;;;102.43;45.20;;;;;;;-1.99;100.00;102101.75;10270902;29;20035;-80
2022/03/03 05:33:39;;;;;;;96.63;41.55;;;;;;;-2.03;100.00;102106.56;10269450;29;20045;-81
2022/03/03 05:38:40;;;;;;;95.27;45.27;;;;;;;-2.06;100.00;102096.06;10270232;29;20411;-81
2022/03/03 05:43:40;;;;;;;103.60;45.93;;;;;;;-2.12;100.00;102102.88;10270694;29;20039;-81
2022/03/03 05:48:41;;;;;;;103.28;45.70;;;;;;;-2.14;100.00;102104.00;10269667;29;20095;-81
2022/03/03 05:53:41;;;;;;;109.25;44.55;;;;;;;-2.14;100.00;102114.81;10253149;29;20035;-81
2022/03/03 05:58:46;;;;;;;105.43;45.40;;;;;;;-2.24;100.00;102094.03;10244573;29;20122;-81
2022/03/03 06:03:48;;;;;;;112.90;46.23;;;;;;;-2.13;100.00;102119.19;10216567;29;20031;-81
2022/03/03 06:09:02;;;;;;;107.57;49.85;;;;;;;-2.15;100.00;102118.47;10238103;29;20051;-80
2022/03/03 06:14:06;;;;;;;107.20;46.97;;;;;;;-2.17;100.00;102120.47;10235956;29;20043;-80
2022/03/03 06:19:07;;;;;;;111.30;48.10;;;;;;;-2.12;100.00;102127.16;10234886;29;20036;-82
2022/03/03 06:24:07;;;;;;;121.77;49.13;;;;;;;-2.03;100.00;102128.16;10273209;29;20328;-82
2022/03/03 06:29:08;;;;;;;117.72;49.67;;;;;;;-2.04;100.00;102121.06;10274945;29;20035;-82
2022/03/03 06:34:08;;;;;;;111.93;49.90;;;;;;;-2.00;100.00;102127.88;10241890;29;20023;-82
2022/03/03 06:39:09;;;;;;;117.87;51.23;;;;;;;-1.87;100.00;102133.84;10256587;29;20414;-82
2022/03/03 06:44:09;;;;;;;113.43;47.10;;;;;;;-1.75;100.00;102131.00;10233305;29;20052;-82
2022/03/03 06:49:11;;;;;;;113.13;48.67;;;;;;;-1.64;100.00;102147.06;10216727;29;20063;-82
2022/03/03 06:54:14;;;;;;;119.03;49.85;;;;;;;-1.51;100.00;102139.53;10217352;29;20067;-81
2022/03/03 06:59:16;;;;;;;112.87;47.83;;;;;;;-1.36;100.00;102137.22;10234598;29;20055;-80
2022/03/03 07:04:17;;;;;;;113.83;48.93;;;;;;;-1.21;100.00;102129.50;10216847;29;20103;-81
2022/03/03 07:09:19;;;;;;;106.93;45.97;;;;;;;-1.06;100.00;102138.00;10215107;29;20059;-82
2022/03/03 07:14:19;;;;;;;108.20;45.50;;;;;;;-0.94;100.00;102133.28;10200205;29;20039;-82
2022/03/03 07:19:20;;;;;;;100.57;46.50;;;;;;;-0.82;100.00;102134.78;10232883;29;20045;-82
2022/03/03 07:24:45;;;;;;;100.32;45.05;;;;;;;-0.73;100.00;102142.00;10233077;29;20024;-83
2022/03/03 07:30:06;;;;;;;92.50;40.83;;;;;;;-0.71;100.00;102139.16;10234785;29;20059;-83
2022/03/03 07:35:12;;;;;;;96.82;42.85;;;;;;;-0.84;100.00;102115.16;10257402;29;20046;-85
2022/03/03 07:40:13;;;;;;;87.70;41.85;;;;;;;-0.51;100.00;102148.03;10237370;29;20059;-85
2022/03/03 07:45:13;;;;;;;90.10;42.47;;;;;;;-0.42;100.00;102152.53;10236768;29;20574;-85
2022/03/03 07:50:14;;;;;;;92.43;40.40;;;;;;;-0.33;100.00;102146.25;10250670;29;20040;-84
2022/03/03 07:55:15;;;;;;;97.95;41.97;;;;;;;-0.26;100.00;102146.47;10250116;29;20027;-85
2022/03/03 08:00:15;;;;;;;91.90;41.72;;;;;;;-0.19;100.00;102144.00;10217794;29;20024;-84
2022/03/03 08:05:16;;;;;;;81.43;38.90;;;;;;;-0.10;100.00;102132.28;10224357;29;20027;-87
2022/03/03 08:10:16;;;;;;;87.85;40.92;;;;;;;-0.04;100.00;102134.38;10254197;29;20036;-85
2022/03/03 08:15:17;;;;;;;82.80;39.75;;;;;;;0.06;100.00;102135.13;10252292;29;20031;-83
2022/03/03 08:20:17;;;;;;;83.40;40.92;;;;;;;0.16;100.00;102133.19;10197737;29;20039;-84
2022/03/03 08:25:18;;;;;;;81.20;38.58;;;;;;;0.36;100.00;102149.31;10198135;29;20063;-83
2022/03/03 08:30:18;;;;;;;79.15;36.17;;;;;;;0.39;100.00;102132.72;10229778;29;20035;-84
2022/03/03 08:35:20;;;;;;;73.10;34.70;;;;;;;0.56;100.00;102150.84;10229433;29;20087;-82
2022/03/03 08:40:22;;;;;;;74.50;37.33;;;;;;;0.75;100.00;102157.06;10173459;29;20067;-83
2022/03/03 08:45:29;;;;;;;68.93;33.58;;;;;;;0.85;100.00;102163.25;10173471;29;20044;-83
2022/03/03 08:50:31;;;;;;;74.75;35.55;;;;;;;1.07;100.00;102163.72;10213878;29;20036;-83
2022/03/03 08:55:31;;;;;;;68.25;33.58;;;;;;;1.16;100.00;102163.63;10228038;29;20048;-83
2022/03/03 09:00:32;;;;;;;65.63;32.85;;;;;;;1.36;100.00;102161.50;10227324;29;20028;-81
2022/03/03 09:05:32;;;;;;;66.93;32.67;;;;;;;1.51;100.00;102152.75;10216631;29;20040;-82
2022/03/03 09:10:33;;;;;;;63.10;30.85;;;;;;;1.76;100.00;102157.28;10206654;29;20047;-83
2022/03/03 09:15:34;;;;;;;59.25;29.77;;;;;;;1.94;100.00;102137.28;10228217;29;20047;-81
2022/03/03 09:20:35;;;;;;;60.47;31.63;;;;;;;2.13;100.00;102123.41;10228166;29;20047;-81
2022/03/03 09:25:36;;;;;;;54.08;28.75;;;;;;;2.33;100.00;102125.78;10227736;29;20044;-83
2022/03/03 09:30:37;;;;;;;50.70;29.10;;;;;;;2.56;100.00;102115.97;10194557;29;20050;-82
2022/03/03 09:35:37;;;;;;;54.67;26.25;;;;;;;2.94;100.00;102118.13;10187960;29;20064;-81
2022/03/03 09:40:38;;;;;;;44.58;24.63;;;;;;;3.32;100.00;102116.44;10189502;29;20158;-82
2022/03/03 09:45:38;;;;;;;44.42;24.67;;;;;;;3.59;100.00;102100.69;10228392;29;20055;-82
2022/03/03 09:50:40;;;;;;;44.58;26.33;;;;;;;4.02;100.00;102101.13;10217826;29;20036;-81
2022/03/03 09:55:41;;;;;;;43.90;21.67;;;;;;;4.44;100.00;102110.66;10191422;29;20031;-82
2022/03/03 10:00:42;;;;;;;38.15;21.88;;;;;;;4.90;100.00;102105.13;10206821;29;20039;-81
2022/03/03 10:05:45;;;;;;;37.13;21.38;;;;;;;5.23;100.00;102089.25;10205650;29;20067;-82
2022/03/03 10:10:50;;;;;;;39.60;23.40;;;;;;;5.61;100.00;102090.97;10190615;29;20039;-82
2022/03/03 10:15:52;;;;;;;31.20;19.52;;;;;;;6.05;100.00;102103.69;10224197;29;20051;-78
2022/03/03 10:20:55;;;;;;;33.83;19.00;;;;;;;6.36;100.00;102100.63;10206495;29;20032;-79
2022/03/03 10:25:57;;;;;;;33.50;20.02;;;;;;;6.62;100.00;102102.75;10206155;29;20044;-78
2022/03/03 10:31:08;;;;;;;27.08;16.75;;;;;;;6.81;100.00;102083.97;10189331;29;20039;-79
2022/03/03 10:36:12;;;;;;;32.55;19.10;;;;;;;7.14;100.00;102102.50;10205422;29;20040;-80
2022/03/03 10:41:30;;;;;;;26.63;17.00;;;;;;;7.23;100.00;102102.09;10207536;29;20382;-79
2022/03/03 10:46:31;;;;;;;32.30;19.85;;;;;;;7.43;100.00;102110.44;10214180;29;20055;-80
2022/03/03 10:51:31;;;;;;;31.35;18.88;;;;;;;7.57;100.00;102107.78;10211845;29;20035;-80
2022/03/03 10:56:32;;;;;;;30.90;17.35;;;;;;;7.62;96.64;102088.81;10213332;29;20032;-79
2022/03/03 11:01:33;;;;;;;32.75;16.92;;;;;;;7.81;92.53;102092.66;10195436;29;20028;-81
2022/03/03 11:06:34;;;;;;;25.60;15.13;;;;;;;8.02;93.36;102100.78;10216007;29;20071;-80
2022/03/03 11:11:35;;;;;;;22.63;14.10;;;;;;;8.41;88.92;102076.34;10213444;29;20170;-78
2022/03/03 11:16:35;;;;;;;25.17;15.60;;;;;;;8.69;86.09;102084.38;10222784;29;20423;-80
2022/03/03 11:21:36;;;;;;;28.80;15.90;;;;;;;8.74;83.32;102064.53;10211142;29;20551;-82
2022/03/03 11:26:41;;;;;;;36.42;20.73;;;;;;;8.94;89.19;102090.06;10195161;29;20376;-81
2022/03/03 11:31:43;;;;;;;35.42;19.77;;;;;;;9.08;89.91;102088.97;10179656;29;20387;-81
2022/03/03 11:36:45;;;;;;;32.13;19.30;;;;;;;9.08;89.61;102035.94;10196915;29;20036;-78
2022/03/03 11:41:46;;;;;;;27.05;16.00;;;;;;;9.63;80.32;102066.59;10219740;29;20423;-80
2022/03/03 11:46:48;;;;;;;22.20;14.20;;;;;;;9.58;79.46;102052.66;10252462;29;20076;-81
2022/03/03 11:51:49;;;;;;;23.35;14.60;;;;;;;9.81;78.72;102043.84;10264524;29;20288;-82
2022/03/03 11:57:13;;;;;;;24.65;15.10;;;;;;;10.14;77.06;102042.78;10269837;28;20506;-80
2022/03/03 12:02:17;;;;;;;25.15;14.90;;;;;;;10.48;76.85;102016.72;10271149;29;20094;-81
2022/03/03 12:07:36;;;;;;;20.98;12.35;;;;;;;10.50;73.18;101980.72;10238195;29;20110;-83
2022/03/03 12:12:36;;;;;;;21.27;12.63;;;;;;;11.01;72.42;102004.28;10213503;29;20035;-81
2022/03/03 12:17:58;;;;;;;22.33;13.50;;;;;;;11.45;72.97;102004.19;10213820;29;20075;-83
2022/03/03 12:23:12;;;;;;;21.98;13.40;;;;;;;11.89;69.83;101958.81;10236579;29;20035;-82
2022/03/03 12:28:22;;;;;;;20.63;14.55;;;;;;;12.55;67.66;101980.84;10230096;29;20142;-82
2022/03/03 12:33:26;;;;;;;25.70;15.13;;;;;;;13.21;65.17;101977.81;10230820;29;20039;-82
2022/03/03 12:38:27;;;;;;;20.10;14.95;;;;;;;13.66;65.10;101968.78;10230915;29;20516;-81
2022/03/03 12:43:27;;;;;;;22.85;14.98;;;;;;;14.41;62.41;101958.44;10216403;29;20035;-81
2022/03/03 12:48:32;;;;;;;21.25;14.55;;;;;;;14.04;58.48;101925.72;10216161;29;20047;-80
2022/03/03 12:53:52;;;;;;;20.75;14.05;;;;;;;14.26;57.66;101936.84;10196359;29;20051;-78
2022/03/03 12:58:53;;;;;;;17.52;13.25;;;;;;;14.47;56.19;101935.22;10211874;29;20046;-78
2022/03/03 13:03:53;;;;;;;18.52;12.38;;;;;;;14.00;53.52;101885.78;10212635;29;20032;-78
2022/03/03 13:09:01;;;;;;;18.55;13.02;;;;;;;14.58;54.28;101926.03;10229370;29;20050;-76
2022/03/03 13:14:06;;;;;;;17.70;13.40;;;;;;;14.84;52.22;101874.53;10253107;29;20066;-79
2022/03/03 13:19:06;;;;;;;19.65;13.63;;;;;;;15.19;51.58;101919.56;10251121;29;20031;-81
2022/03/03 13:24:09;;;;;;;19.42;13.45;;;;;;;15.87;51.27;101920.00;10264927;29;20035;-79
2022/03/03 13:29:15;;;;;;;18.88;13.20;;;;;;;15.97;48.70;101903.44;10224130;29;20099;-79
2022/03/03 13:34:28;;;;;;;16.25;11.07;;;;;;;15.56;48.14;101891.09;10213618;29;20387;-78
2022/03/03 13:39:33;;;;;;;14.80;11.40;;;;;;;15.51;48.29;101909.38;10230123;29;20090;-80
2022/03/03 13:44:34;;;;;;;18.30;12.55;;;;;;;16.04;47.96;101892.09;10200040;29;20044;-79
2022/03/03 13:49:36;;;;;;;18.48;12.55;;;;;;;16.26;47.01;101875.31;10247414;29;20028;-80
2022/03/03 13:54:47;;;;;;;15.25;11.75;;;;;;;16.45;47.20;101907.09;10247539;29;20031;-79
2022/03/03 13:59:54;;;;;;;16.25;12.20;;;;;;;16.73;45.71;101905.84;10214329;29;20027;-79
2022/03/03 14:04:58;;;;;;;15.00;11.45;;;;;;;16.29;44.02;101899.78;10230368;29;20062;-79
2022/03/03 14:10:08;;;;;;;14.85;10.95;;;;;;;16.18;44.52;101892.47;10230600;29;20047;-79
2022/03/03 14:15:09;;;;;;;14.77;11.05;;;;;;;16.43;43.60;101889.00;10229126;29;20379;-79
2022/03/03 14:20:10;;;;;;;17.48;12.15;;;;;;;16.69;43.40;101899.16;10236554;29;20591;-78
2022/03/03 14:25:10;;;;;;;15.57;11.77;;;;;;;16.80;45.36;101911.16;10237918;29;20039;-79
2022/03/03 14:30:11;;;;;;;14.10;9.98;;;;;;;16.30;43.40;101891.16;10234721;29;20040;-80
2022/03/03 14:35:12;;;;;;;15.23;10.80;;;;;;;16.42;42.99;101892.91;10238095;29;20047;-82
2022/03/03 14:40:12;;;;;;;14.95;10.88;;;;;;;16.73;42.64;101894.75;10240310;29;20079;-81
2022/03/03 14:45:13;;;;;;;16.15;11.60;;;;;;;16.57;43.93;101895.75;10240041;29;20047;-81
2022/03/03 14:50:14;;;;;;;17.25;10.68;;;;;;;16.16;43.65;101894.69;10256507;29;20043;-78
2022/03/03 14:55:14;;;;;;;14.98;9.57;;;;;;;15.57;42.79;101876.13;10274676;29;20086;-80
2022/03/03 15:00:16;;;;;;;13.05;8.73;;;;;;;15.21;43.43;101892.41;10221096;29;20063;-78
2022/03/03 15:05:17;;;;;;;13.52;8.80;;;;;;;15.12;42.42;101880.94;10235474;29;20051;-79
2022/03/03 15:10:17;;;;;;;16.30;10.90;;;;;;;15.47;44.30;101880.47;10252987;29;20439;-79
2022/03/03 15:15:18;;;;;;;12.60;8.38;;;;;;;14.91;44.29;101852.97;10233687;29;20039;-79
2022/03/03 15:20:18;;;;;;;13.20;8.75;;;;;;;14.23;43.64;101880.03;10203144;29;20035;-78
2022/03/03 15:25:19;;;;;;;13.55;8.02;;;;;;;13.80;45.64;101905.66;10235274;29;20074;-79
2022/03/03 15:30:20;;;;;;;12.55;7.55;;;;;;;13.20;46.34;101857.25;10250718;29;20032;-79
2022/03/03 15:40:40;;;;;;;12.02;6.72;;;;;;;12.69;47.93;101915.09;10211208;29;20058;-78
2022/03/03 15:45:42;;;;;;;10.82;6.47;;;;;;;12.05;47.84;101841.34;10203148;29;20048;-78
2022/03/03 15:50:42;;;;;;;11.05;6.10;;;;;;;11.74;47.44;101903.22;10192883;29;20539;-78
2022/03/03 15:55:43;;;;;;;9.13;5.25;;;;;;;11.16;50.44;101923.97;10191922;29;20036;-78
2022/03/03 16:00:43;;;;;;;9.65;5.28;;;;;;;10.62;52.88;101940.31;10207675;29;20472;-78
2022/03/03 16:05:44;;;;;;;9.43;5.30;;;;;;;9.70;55.45;101935.41;10209615;29;20868;-78
2022/03/03 16:10:45;;;;;;;9.82;5.50;;;;;;;8.82;57.72;101951.72;10208114;29;20122;-78
2022/03/03 16:15:45;;;;;;;10.13;5.00;;;;;;;8.32;60.03;101967.84;10177968;29;20515;-78
2022/03/03 16:20:45;;;;;;;10.32;5.53;;;;;;;7.92;62.14;101974.19;10210269;29;20476;-78
2022/03/03 16:25:46;;;;;;;11.05;5.90;;;;;;;7.59;65.42;101979.63;10210005;29;20456;-78
2022/03/03 16:30:47;;;;;;;10.30;5.38;;;;;;;7.32;66.44;101984.16;10206338;29;20420;-78
2022/03/03 16:35:47;;;;;;;9.65;6.38;;;;;;;7.07;68.90;101991.03;10174040;29;20033;-77
2022/03/03 16:40:48;;;;;;;18.15;9.82;;;;;;;6.85;73.61;102001.22;10151273;29;20045;-79
2022/03/03 16:45:48;;;;;;;17.83;9.02;;;;;;;6.66;77.77;102005.53;10165809;29;20555;-77
2022/03/03 16:50:50;;;;;;;16.85;9.25;;;;;;;6.47;81.71;102009.00;10155133;29;20039;-79
2022/03/03 16:55:51;;;;;;;15.10;8.32;;;;;;;6.20;86.20;102013.38;10201295;29;20032;-79
2022/03/03 17:00:51;;;;;;;19.70;8.65;;;;;;;5.96;89.05;102011.94;10177586;29;20488;-79
2022/03/03 17:05:52;;;;;;;14.75;8.07;;;;;;;5.68;92.63;102009.91;10204873;29;20044;-79
2022/03/03 17:10:54;;;;;;;12.80;6.70;;;;;;;5.50;95.53;102025.91;10173524;29;20040;-79
2022/03/03 17:15:54;;;;;;;10.55;5.88;;;;;;;5.22;98.87;102015.69;10173000;29;20036;-78
2022/03/03 17:20:55;;;;;;;10.20;5.40;;;;;;;5.08;100.00;102035.66;10189049;29;20115;-78
2022/03/03 17:25:55;;;;;;;12.95;5.97;;;;;;;4.85;100.00;102042.06;10172183;29;20595;-79
2022/03/03 17:30:56;;;;;;;10.10;5.43;;;;;;;4.23;100.00;101964.16;10155547;29;20032;-79
2022/03/03 17:35:56;;;;;;;11.65;5.35;;;;;;;4.53;100.00;102049.56;10188545;29;20032;-78
2022/03/03 17:40:57;;;;;;;12.50;6.53;;;;;;;4.31;100.00;102050.47;10184571;29;20089;-78
2022/03/03 17:45:58;;;;;;;14.43;6.60;;;;;;;4.26;100.00;102064.66;10154085;29;20055;-78
2022/03/03 17:50:59;;;;;;;11.90;5.72;;;;;;;4.14;100.00;102072.41;10186721;29;20095;-78
2022/03/03 17:56:00;;;;;;;13.02;6.65;;;;;;;4.12;100.00;102069.00;10195796;29;20469;-78
2022/03/03 18:01:00;;;;;;;16.88;7.30;;;;;;;4.09;100.00;102077.53;10156000;29;20047;-78
2022/03/03 18:06:04;;;;;;;15.57;7.43;;;;;;;3.96;100.00;102066.41;10175455;29;20048;-79
2022/03/03 18:11:05;;;;;;;15.75;8.38;;;;;;;4.00;100.00;102087.66;10170013;29;20044;-79
2022/03/03 18:16:05;;;;;;;17.08;7.60;;;;;;;3.91;100.00;102093.38;10162804;29;20039;-76
2022/03/03 18:21:06;;;;;;;11.93;7.93;;;;;;;3.69;100.00;102098.59;10166095;29;20048;-79
2022/03/03 18:26:07;;;;;;;14.40;7.60;;;;;;;3.41;100.00;102079.16;10150511;29;20033;-78
2022/03/03 18:31:07;;;;;;;14.43;6.50;;;;;;;3.47;100.00;102127.44;10166742;29;20024;-79
2022/03/03 18:36:08;;;;;;;12.50;7.50;;;;;;;3.30;100.00;102126.66;10183955;29;20033;-79
2022/03/03 18:41:08;;;;;;;16.05;7.10;;;;;;;3.21;100.00;102128.56;10167246;29;20064;-79
2022/03/03 18:46:09;;;;;;;13.82;7.32;;;;;;;3.08;100.00;102128.28;10164108;29;20064;-79
2022/03/03 18:51:11;;;;;;;15.70;8.38;;;;;;;2.88;100.00;102116.09;10166190;29;20040;-78
2022/03/03 18:56:11;;;;;;;14.00;8.57;;;;;;;2.81;100.00;102124.06;10157335;29;20252;-79
2022/03/03 19:01:14;;;;;;;16.27;8.27;;;;;;;2.76;100.00;102140.06;10170006;29;20480;-79
2022/03/03 19:06:15;;;;;;;16.17;7.90;;;;;;;2.65;100.00;102145.84;10170240;29;20500;-78
2022/03/03 19:11:18;;;;;;;16.08;9.68;;;;;;;2.56;100.00;102153.16;10153929;29;20025;-78
2022/03/03 19:16:19;;;;;;;21.77;10.48;;;;;;;2.48;100.00;102156.75;10153927;29;20111;-78
2022/03/03 19:21:19;;;;;;;19.35;9.30;;;;;;;2.12;100.00;102097.25;10138258;29;20024;-78
2022/03/03 19:26:20;;;;;;;22.48;11.00;;;;;;;2.30;100.00;102154.16;10168244;29;20526;-78
2022/03/03 19:31:21;;;;;;;21.65;11.10;;;;;;;2.24;100.00;102159.44;10154073;29;20675;-78
2022/03/03 19:36:21;;;;;;;21.67;10.80;;;;;;;2.06;100.00;102144.09;10137065;29;20051;-82
2022/03/03 19:41:22;;;;;;;22.10;11.48;;;;;;;2.07;100.00;102162.13;10152762;29;20057;-78
2022/03/03 19:46:22;;;;;;;22.30;10.98;;;;;;;1.95;100.00;102171.59;10168338;29;20065;-78
2022/03/03 19:51:23;;;;;;;21.63;11.05;;;;;;;1.75;100.00;102150.13;10168809;29;20335;-78
2022/03/03 19:56:23;;;;;;;25.77;12.07;;;;;;;1.70;100.00;102152.50;10136620;29;20039;-78
2022/03/03 20:01:24;;;;;;;27.90;11.18;;;;;;;1.68;100.00;102169.97;10152173;29;20028;-78
2022/03/03 20:06:25;;;;;;;22.77;12.55;;;;;;;1.55;100.00;102159.56;10167897;29;20036;-78
2022/03/03 20:11:25;;;;;;;25.92;12.55;;;;;;;1.51;100.00;102163.59;10167161;29;20389;-77
2022/03/03 20:16:26;;;;;;;26.10;13.98;;;;;;;1.44;100.00;102157.97;10166879;29;20398;-79
2022/03/03 20:21:26;;;;;;;26.85;12.85;;;;;;;1.46;100.00;102172.25;10151817;29;20029;-79
2022/03/03 20:26:27;;;;;;;26.33;13.10;;;;;;;1.36;100.00;102180.50;10152452;29;20041;-79
2022/03/03 20:31:27;;;;;;;27.13;13.00;;;;;;;1.25;100.00;102186.22;10151354;29;20036;-79
2022/03/03 20:36:28;;;;;;;31.38;14.77;;;;;;;1.29;100.00;102197.59;10161934;29;20516;-79
2022/03/03 20:41:28;;;;;;;24.58;13.23;;;;;;;1.25;100.00;102197.06;10133327;29;20044;-79
2022/03/03 20:46:29;;;;;;;28.40;15.32;;;;;;;1.19;100.00;102198.53;10133558;29;20064;-79
2022/03/03 20:51:35;;;;;;;28.30;14.63;;;;;;;1.14;100.00;102205.47;10133833;29;20060;-78
2022/03/03 20:56:36;;;;;;;28.52;15.00;;;;;;;0.77;100.00;102149.63;10149043;29;20097;-78
2022/03/03 21:01:36;;;;;;;28.33;14.82;;;;;;;1.07;100.00;102213.38;10149034;29;20028;-79
2022/03/03 21:06:38;;;;;;;30.67;15.27;;;;;;;1.00;100.00;102204.19;10164209;29;20028;-79
2022/03/03 21:11:38;;;;;;;29.42;13.48;;;;;;;0.94;100.00;102202.13;10132794;29;20096;-79
2022/03/03 21:16:40;;;;;;;34.28;14.30;;;;;;;0.86;100.00;102193.91;10148403;29;20057;-79
2022/03/03 21:21:40;;;;;;;34.63;13.77;;;;;;;0.74;100.00;102174.34;10117928;29;20040;-79
2022/03/03 21:26:40;;;;;;;31.58;13.80;;;;;;;0.76;100.00;102186.72;10146970;29;20036;-79
2022/03/03 21:31:41;;;;;;;31.63;12.88;;;;;;;0.65;100.00;102178.00;10132731;29;20040;-79
2022/03/03 21:36:41;;;;;;;23.92;12.38;;;;;;;0.63;100.00;102197.13;10132309;29;20029;-79
2022/03/03 21:41:42;;;;;;;27.65;13.70;;;;;;;0.52;100.00;102190.09;10214439;29;20044;-79
2022/03/03 21:46:42;;;;;;;30.00;13.40;;;;;;;0.53;100.00;102201.78;10210290;29;21330;-79
2022/03/03 21:51:43;;;;;;;25.15;12.07;;;;;;;0.49;100.00;102194.97;10178602;29;20054;-79
2022/03/03 21:56:43;;;;;;;23.52;11.77;;;;;;;0.39;100.00;102192.31;10193602;29;20039;-79
2022/03/03 22:01:44;;;;;;;26.00;12.32;;;;;;;0.41;100.00;102203.84;10211252;29;20087;-79
2022/03/03 22:06:44;;;;;;;30.33;11.85;;;;;;;0.13;100.00;102166.00;10195645;29;20044;-79
2022/03/03 22:11:45;;;;;;;25.73;11.90;;;;;;;0.30;100.00;102204.09;10221853;29;20032;-79
2022/03/03 22:16:45;;;;;;;23.95;11.73;;;;;;;0.10;100.00;102187.97;10172101;29;20129;-79
2022/03/03 22:21:46;;;;;;;23.10;10.63;;;;;;;0.16;100.00;102206.31;10172257;29;20044;-79
2022/03/03 22:26:46;;;;;;;21.42;10.68;;;;;;;0.12;100.00;102217.63;10187206;29;20484;-78
2022/03/03 22:31:47;;;;;;;22.15;10.73;;;;;;;0.05;100.00;102209.25;10156562;29;20036;-79
2022/03/03 22:36:48;;;;;;;22.15;10.50;;;;;;;0.03;100.00;102218.53;10172053;29;20040;-79